createdAt,value
2019-05-09T00:00:04.354Z,0.00
2019-05-09T00:01:04.333Z,0.00
2019-05-09T00:02:04.318Z,0.00
2019-05-09T00:03:04.316Z,0.00
2019-05-09T00:04:04.304Z,0.00
2019-05-09T00:05:04.291Z,0.00
2019-05-09T00:06:04.707Z,0.00
2019-05-09T00:07:04.263Z,0.00
2019-05-09T00:08:04.267Z,0.00
2019-05-09T00:09:04.253Z,0.00
2019-05-09T00:10:04.282Z,0.00
2019-05-09T00:11:04.228Z,0.00
2019-05-09T00:12:04.231Z,0.00
2019-05-09T00:13:04.197Z,0.00
2019-05-09T00:14:04.686Z,0.00
2019-05-09T00:15:04.574Z,0.00
2019-05-09T00:16:04.165Z,0.00
2019-05-09T00:17:04.171Z,0.00
2019-05-09T00:18:04.169Z,0.00
2019-05-09T00:19:04.130Z,0.00
2019-05-09T00:20:04.133Z,0.00
2019-05-09T00:21:04.278Z,0.00
2019-05-09T00:22:04.097Z,0.00
2019-05-09T00:23:04.112Z,0.00
2019-05-09T00:24:04.110Z,0.00
2019-05-09T00:25:04.066Z,0.00
2019-05-09T00:26:04.313Z,0.00
2019-05-09T00:27:04.075Z,0.00
2019-05-09T00:28:04.259Z,0.00
2019-05-09T00:29:04.036Z,0.00
2019-05-09T00:30:04.058Z,0.00
2019-05-09T00:31:03.997Z,0.00
2019-05-09T00:32:03.998Z,0.00
2019-05-09T00:33:03.981Z,0.00
2019-05-09T00:34:04.300Z,0.00
2019-05-09T00:35:04.132Z,0.00
2019-05-09T00:36:04.401Z,0.00
2019-05-09T00:37:04.008Z,0.00
2019-05-09T00:38:04.432Z,0.00
2019-05-09T00:39:04.176Z,0.00
2019-05-09T00:40:04.136Z,0.00
2019-05-09T00:41:03.980Z,0.00
2019-05-09T00:42:04.502Z,0.00
2019-05-09T00:43:04.152Z,0.00
2019-05-09T00:44:03.850Z,0.00
2019-05-09T00:45:04.210Z,0.00
2019-05-09T00:46:04.428Z,0.00
2019-05-09T00:47:04.309Z,0.00
2019-05-09T00:48:03.809Z,0.00
2019-05-09T00:49:05.020Z,0.00
2019-05-09T00:50:05.181Z,0.00
2019-05-09T00:51:03.800Z,0.00
2019-05-09T00:52:03.779Z,0.00
2019-05-09T00:53:03.767Z,0.00
2019-05-09T00:54:04.272Z,0.00
2019-05-09T00:55:04.007Z,0.00
2019-05-09T00:56:04.394Z,0.00
2019-05-09T00:57:03.718Z,0.00
2019-05-09T00:58:04.318Z,0.00
2019-05-09T00:59:04.395Z,0.00
2019-05-09T01:00:04.084Z,0.00
2019-05-09T01:01:04.483Z,0.00
2019-05-09T03:16:49.346Z,0.00
2019-05-09T03:17:32.634Z,0.00
2019-05-09T03:18:32.624Z,0.00
2019-05-09T03:19:32.618Z,0.00
2019-05-09T03:20:32.607Z,5.62
2019-05-09T03:21:32.606Z,5.62
2019-05-09T03:22:32.605Z,5.62
2019-05-09T03:23:32.569Z,5.62
2019-05-09T03:24:32.559Z,5.62
2019-05-09T03:25:32.553Z,5.62
2019-05-09T03:26:32.544Z,5.62
2019-05-09T03:27:32.523Z,5.62
2019-05-09T03:28:32.516Z,5.62
2019-05-09T03:29:32.503Z,5.62
2019-05-09T03:30:32.497Z,5.62
2019-05-09T03:31:32.484Z,5.62
2019-05-09T03:32:32.528Z,11.25
2019-05-09T03:33:35.479Z,11.25
2019-05-09T03:34:32.444Z,11.25
2019-05-09T03:35:32.441Z,11.25
2019-05-09T03:36:32.421Z,11.25
2019-05-09T03:37:32.421Z,11.25
2019-05-09T03:38:32.455Z,11.25
2019-05-09T03:39:32.392Z,11.25
2019-05-09T03:40:32.382Z,16.88
2019-05-09T03:41:32.373Z,16.88
2019-05-09T03:42:41.127Z,16.88
2019-05-09T03:43:33.365Z,22.50
2019-05-09T03:44:32.340Z,22.50
2019-05-09T03:45:32.333Z,22.50
2019-05-09T03:46:32.310Z,22.50
2019-05-09T03:47:32.302Z,22.50
2019-05-09T03:48:32.328Z,22.50
2019-05-09T03:49:32.287Z,22.50
2019-05-09T03:50:32.274Z,22.50
2019-05-09T03:51:32.253Z,22.50
2019-05-09T03:52:32.249Z,22.50
2019-05-09T03:53:32.240Z,22.50
2019-05-09T03:54:32.233Z,22.50
2019-05-09T03:55:32.244Z,22.50
2019-05-09T03:56:32.206Z,22.50
2019-05-09T03:57:32.207Z,22.50
2019-05-09T03:58:32.197Z,28.12
2019-05-09T03:59:32.171Z,33.75
2019-05-09T04:00:32.173Z,33.75
2019-05-09T04:01:32.143Z,33.75
2019-05-09T04:02:32.146Z,33.75
2019-05-09T04:03:32.123Z,33.75
2019-05-09T04:04:32.114Z,39.38
2019-05-09T04:05:32.102Z,45.00
2019-05-09T04:06:32.107Z,50.62
2019-05-09T04:07:32.079Z,61.88
2019-05-09T04:08:32.067Z,73.12
2019-05-09T04:09:32.059Z,78.75
2019-05-09T04:10:32.046Z,84.38
2019-05-09T04:11:32.046Z,84.38
2019-05-09T04:12:32.025Z,101.25
2019-05-09T04:13:32.009Z,129.38
2019-05-09T04:14:32.024Z,157.50
2019-05-09T04:15:31.987Z,180.00
2019-05-09T04:16:31.983Z,196.88
2019-05-09T04:17:31.975Z,208.12
2019-05-09T04:18:31.975Z,213.75
2019-05-09T04:19:31.948Z,225.00
2019-05-09T04:20:31.953Z,247.50
2019-05-09T04:21:31.926Z,258.75
2019-05-09T04:22:31.920Z,270.00
2019-05-09T04:23:31.900Z,270.00
2019-05-09T04:24:31.888Z,258.75
2019-05-09T04:25:31.882Z,241.88
2019-05-09T04:26:31.866Z,213.75
2019-05-09T04:27:31.869Z,202.50
2019-05-09T04:28:31.855Z,174.38
2019-05-09T04:29:31.835Z,151.88
2019-05-09T04:30:31.820Z,140.62
2019-05-09T04:31:31.806Z,140.62
2019-05-09T04:32:31.811Z,146.25
2019-05-09T04:33:31.804Z,146.25
2019-05-09T04:34:31.784Z,151.88
2019-05-09T04:35:31.767Z,163.12
2019-05-09T04:36:31.750Z,168.75
2019-05-09T04:37:31.741Z,180.00
2019-05-09T04:38:31.745Z,185.62
2019-05-09T04:39:31.717Z,202.50
2019-05-09T04:40:32.207Z,219.38
2019-05-09T04:41:31.695Z,236.25
2019-05-09T04:42:35.125Z,230.62
2019-05-09T04:43:36.765Z,219.38
2019-05-09T04:44:31.677Z,208.12
2019-05-09T04:45:33.193Z,196.88
2019-05-09T04:46:32.637Z,185.62
2019-05-09T04:47:33.910Z,174.38
2019-05-09T04:48:32.632Z,174.38
2019-05-09T04:49:39.668Z,163.12
2019-05-09T04:50:32.597Z,163.12
2019-05-09T04:51:31.587Z,174.38
2019-05-09T04:52:31.572Z,191.25
2019-05-09T04:53:31.563Z,213.75
2019-05-09T04:54:31.574Z,230.62
2019-05-09T04:55:31.540Z,230.62
2019-05-09T04:56:31.530Z,219.38
2019-05-09T04:57:31.521Z,202.50
2019-05-09T04:58:31.512Z,202.50
2019-05-09T04:59:31.494Z,219.38
2019-05-09T05:00:31.495Z,230.62
2019-05-09T05:01:31.481Z,236.25
2019-05-09T05:02:31.470Z,230.62
2019-05-09T05:03:31.454Z,208.12
2019-05-09T05:04:31.485Z,196.88
2019-05-09T05:05:31.442Z,174.38
2019-05-09T05:06:31.422Z,163.12
2019-05-09T05:07:31.405Z,157.50
2019-05-09T05:08:31.397Z,163.12
2019-05-09T05:09:31.383Z,174.38
2019-05-09T05:10:31.389Z,185.62
2019-05-09T05:11:31.361Z,185.62
2019-05-09T05:12:31.348Z,174.38
2019-05-09T05:13:31.335Z,157.50
2019-05-09T05:14:31.331Z,140.62
2019-05-09T05:15:31.328Z,135.00
2019-05-09T05:16:31.314Z,140.62
2019-05-09T05:17:31.316Z,135.00
2019-05-09T05:18:31.300Z,140.62
2019-05-09T05:19:31.659Z,151.88
2019-05-09T05:20:31.281Z,157.50
2019-05-09T05:21:31.252Z,168.75
2019-05-09T05:22:31.258Z,180.00
2019-05-09T05:23:31.230Z,196.88
2019-05-09T05:24:31.217Z,213.75
2019-05-09T05:25:31.204Z,225.00
2019-05-09T05:26:31.200Z,236.25
2019-05-09T05:27:31.187Z,247.50
2019-05-09T05:28:31.184Z,270.00
2019-05-09T05:29:31.161Z,298.12
2019-05-09T05:30:31.144Z,309.38
2019-05-09T05:31:31.140Z,309.38
2019-05-09T05:32:31.130Z,298.12
2019-05-09T05:33:31.136Z,281.25
2019-05-09T05:34:31.118Z,258.75
2019-05-09T05:35:31.095Z,253.12
2019-05-09T05:36:31.077Z,253.12
2019-05-09T05:37:31.073Z,258.75
2019-05-09T05:38:31.065Z,258.75
2019-05-09T05:39:31.065Z,258.75
2019-05-09T05:40:33.523Z,264.38
2019-05-09T05:41:31.040Z,275.62
2019-05-09T05:42:31.016Z,292.50
2019-05-09T05:43:40.595Z,320.62
2019-05-09T05:44:32.022Z,343.12
2019-05-09T05:45:30.977Z,354.38
2019-05-09T05:46:30.979Z,371.25
2019-05-09T05:47:30.956Z,393.75
2019-05-09T05:48:30.947Z,410.62
2019-05-09T05:49:30.933Z,427.50
2019-05-09T05:50:30.938Z,438.75
2019-05-09T05:51:30.919Z,433.12
2019-05-09T05:52:30.908Z,421.88
2019-05-09T05:53:30.886Z,399.38
2019-05-09T05:54:30.876Z,371.25
2019-05-09T05:55:30.887Z,354.38
2019-05-09T05:56:30.880Z,343.12
2019-05-09T05:57:30.852Z,337.50
2019-05-09T05:58:30.844Z,337.50
2019-05-09T05:59:30.896Z,343.12
2019-05-09T06:00:30.811Z,348.75
2019-05-09T06:01:30.819Z,354.38
2019-05-09T06:02:30.791Z,348.75
2019-05-09T06:03:30.783Z,331.88
2019-05-09T06:04:30.768Z,315.00
2019-05-09T06:05:30.757Z,303.75
2019-05-09T06:06:33.046Z,292.50
2019-05-09T06:07:31.329Z,286.88
2019-05-09T06:08:30.965Z,286.88
2019-05-09T06:09:30.850Z,292.50
2019-05-09T06:10:30.703Z,309.38
2019-05-09T06:11:30.690Z,343.12
2019-05-09T06:12:30.691Z,360.00
2019-05-09T06:13:30.675Z,382.50
2019-05-09T06:14:30.666Z,405.00
2019-05-09T06:15:30.660Z,433.12
2019-05-09T06:16:30.644Z,455.62
2019-05-09T06:17:30.640Z,483.75
2019-05-09T06:18:30.631Z,506.25
2019-05-09T06:19:30.635Z,523.12
2019-05-09T06:20:30.595Z,528.75
2019-05-09T06:21:30.587Z,534.38
2019-05-09T06:22:30.628Z,534.38
2019-05-09T06:23:30.619Z,528.75
2019-05-09T06:24:30.577Z,534.38
2019-05-09T06:25:30.995Z,540.00
2019-05-09T06:26:30.541Z,551.25
2019-05-09T06:27:30.517Z,568.12
2019-05-09T06:28:30.514Z,579.38
2019-05-09T06:29:30.516Z,590.62
2019-05-09T06:30:30.489Z,590.62
2019-05-09T06:31:30.476Z,585.00
2019-05-09T06:32:30.483Z,573.75
2019-05-09T06:33:30.460Z,545.62
2019-05-09T06:34:30.458Z,511.88
2019-05-09T06:35:30.434Z,478.12
2019-05-09T06:36:30.438Z,450.00
2019-05-09T06:37:30.415Z,433.12
2019-05-09T06:38:30.397Z,427.50
2019-05-09T06:39:30.420Z,433.12
2019-05-09T06:40:30.392Z,450.00
2019-05-09T06:41:30.362Z,472.50
2019-05-09T06:42:30.356Z,489.38
2019-05-09T06:43:30.355Z,495.00
2019-05-09T06:44:30.336Z,489.38
2019-05-09T06:45:30.344Z,455.62
2019-05-09T06:46:30.325Z,433.12
2019-05-09T06:47:30.306Z,410.62
2019-05-09T06:48:30.296Z,399.38
2019-05-09T06:49:31.931Z,388.12
2019-05-09T06:50:30.274Z,376.88
2019-05-09T06:51:30.264Z,371.25
2019-05-09T06:52:30.253Z,376.88
2019-05-09T06:53:30.231Z,376.88
2019-05-09T06:54:30.244Z,388.12
2019-05-09T06:55:30.231Z,388.12
2019-05-09T06:56:30.232Z,399.38
2019-05-09T06:57:30.193Z,410.62
2019-05-09T06:58:30.184Z,427.50
2019-05-09T06:59:30.264Z,455.62
2019-05-09T07:00:30.173Z,495.00
2019-05-09T07:01:30.147Z,551.25
2019-05-09T07:02:30.143Z,607.50
2019-05-09T07:03:30.121Z,675.00
2019-05-09T07:04:30.112Z,731.25
2019-05-09T07:05:30.103Z,765.00
2019-05-09T07:06:30.104Z,804.38
2019-05-09T07:07:30.091Z,826.88
2019-05-09T07:08:31.440Z,838.12
2019-05-09T07:09:30.069Z,815.62
2019-05-09T07:10:30.043Z,787.50
2019-05-09T07:11:30.037Z,753.75
2019-05-09T07:12:30.034Z,725.62
2019-05-09T07:13:30.010Z,697.50
2019-05-09T07:14:33.197Z,675.00
2019-05-09T07:15:29.987Z,646.88
2019-05-09T07:16:29.982Z,630.00
2019-05-09T07:17:31.807Z,607.50
2019-05-09T07:18:29.959Z,585.00
2019-05-09T07:19:29.939Z,568.12
2019-05-09T07:20:29.939Z,556.88
2019-05-09T07:21:29.939Z,556.88
2019-05-09T07:22:29.909Z,568.12
2019-05-09T07:23:29.892Z,573.75
2019-05-09T07:24:29.888Z,585.00
2019-05-09T07:25:29.885Z,596.25
2019-05-09T07:26:29.875Z,601.88
2019-05-09T07:27:29.868Z,618.75
2019-05-09T07:28:29.854Z,658.12
2019-05-09T07:29:29.827Z,691.88
2019-05-09T07:30:29.818Z,714.38
2019-05-09T07:31:29.840Z,725.62
2019-05-09T07:32:29.796Z,736.88
2019-05-09T07:33:29.786Z,748.12
2019-05-09T07:34:29.798Z,759.38
2019-05-09T07:35:29.771Z,776.25
2019-05-09T07:36:29.749Z,781.88
2019-05-09T07:37:29.736Z,793.12
2019-05-09T07:38:29.725Z,798.75
2019-05-09T07:39:29.723Z,798.75
2019-05-09T07:40:30.687Z,798.75
2019-05-09T07:41:29.692Z,793.12
2019-05-09T07:42:29.687Z,787.50
2019-05-09T07:43:29.670Z,781.88
2019-05-09T07:44:45.042Z,776.25
2019-05-09T07:45:30.639Z,770.62
2019-05-09T07:46:29.642Z,770.62
2019-05-09T07:47:29.616Z,781.88
2019-05-09T07:48:29.614Z,798.75
2019-05-09T07:49:29.594Z,832.50
2019-05-09T07:50:29.588Z,860.62
2019-05-09T07:51:29.583Z,894.38
2019-05-09T07:52:29.581Z,911.25
2019-05-09T07:53:29.566Z,928.12
2019-05-09T07:54:29.581Z,939.38
2019-05-09T07:55:29.541Z,956.25
2019-05-09T07:56:29.549Z,945.00
2019-05-09T07:57:29.519Z,939.38
2019-05-09T07:58:29.511Z,928.12
2019-05-09T07:59:29.489Z,933.75
2019-05-09T08:00:29.481Z,950.62
2019-05-09T08:01:29.494Z,939.38
2019-05-09T08:02:29.457Z,916.88
2019-05-09T08:03:29.450Z,877.50
2019-05-09T08:04:29.455Z,849.38
2019-05-09T08:05:29.426Z,821.25
2019-05-09T08:06:29.416Z,815.62
2019-05-09T08:07:29.397Z,826.88
2019-05-09T08:08:29.394Z,821.25
2019-05-09T08:09:29.382Z,815.62
2019-05-09T08:10:32.902Z,804.38
2019-05-09T08:11:32.197Z,781.88
2019-05-09T08:12:29.343Z,781.88
2019-05-09T08:13:29.333Z,770.62
2019-05-09T08:14:29.321Z,776.25
2019-05-09T08:15:29.310Z,793.12
2019-05-09T08:16:29.303Z,815.62
2019-05-09T08:17:29.282Z,860.62
2019-05-09T08:18:29.273Z,871.88
2019-05-09T08:19:29.265Z,866.25
2019-05-09T08:20:29.278Z,888.75
2019-05-09T08:21:29.257Z,883.12
2019-05-09T08:22:32.435Z,928.12
2019-05-09T08:23:29.216Z,1012.50
2019-05-09T08:24:29.232Z,1080.00
2019-05-09T08:25:29.198Z,1119.38
2019-05-09T08:26:30.127Z,1102.50
2019-05-09T08:27:30.389Z,995.62
2019-05-09T08:28:29.164Z,928.12
2019-05-09T08:29:29.153Z,832.50
2019-05-09T08:30:35.807Z,776.25
2019-05-09T08:31:30.133Z,753.75
2019-05-09T08:32:29.139Z,781.88
2019-05-09T08:33:29.135Z,838.12
2019-05-09T08:34:29.102Z,877.50
2019-05-09T08:35:29.120Z,883.12
2019-05-09T08:36:29.096Z,843.75
2019-05-09T08:37:29.064Z,804.38
2019-05-09T08:38:29.058Z,810.00
2019-05-09T08:39:29.082Z,753.75
2019-05-09T08:40:29.032Z,781.88
2019-05-09T08:41:29.427Z,849.38
2019-05-09T08:42:29.393Z,945.00
2019-05-09T08:43:29.022Z,995.62
2019-05-09T08:44:31.159Z,1051.88
2019-05-09T08:45:31.512Z,1096.88
2019-05-09T08:46:28.971Z,1091.25
2019-05-09T08:47:28.949Z,1046.25
2019-05-09T08:48:28.946Z,1063.12
2019-05-09T08:49:28.938Z,1102.50
2019-05-09T08:50:28.929Z,1136.25
2019-05-09T08:51:36.658Z,1170.00
2019-05-09T08:52:29.891Z,1108.12
2019-05-09T08:53:28.886Z,1068.75
2019-05-09T08:54:28.870Z,1091.25
2019-05-09T08:55:28.863Z,1080.00
2019-05-09T08:56:28.874Z,984.38
2019-05-09T08:57:29.054Z,922.50
2019-05-09T08:58:28.888Z,866.25
2019-05-09T08:59:28.814Z,883.12
2019-05-09T09:00:28.804Z,900.00
2019-05-09T09:01:47.754Z,916.88
2019-05-09T09:02:29.783Z,990.00
2019-05-09T09:03:28.772Z,1130.62
2019-05-09T09:04:29.509Z,1186.88
2019-05-09T09:05:29.002Z,1068.75
2019-05-09T09:06:28.743Z,1119.38
2019-05-09T09:07:29.745Z,1125.00
2019-05-09T09:08:28.723Z,1158.75
2019-05-09T09:09:28.750Z,1181.25
2019-05-09T09:10:29.287Z,1276.88
2019-05-09T09:11:28.684Z,1479.38
2019-05-09T09:12:34.224Z,1614.38
2019-05-09T09:13:29.669Z,1265.62
2019-05-09T09:14:28.652Z,1282.50
2019-05-09T09:15:55.677Z,1383.75
2019-05-09T09:16:29.630Z,1372.50
2019-05-09T09:17:28.621Z,1310.62
2019-05-09T09:18:28.637Z,1063.12
2019-05-09T09:19:28.618Z,922.50
2019-05-09T09:20:29.024Z,826.88
2019-05-09T09:21:28.768Z,736.88
2019-05-09T09:22:28.603Z,624.38
2019-05-09T09:23:42.826Z,556.88
2019-05-09T09:24:29.550Z,528.75
2019-05-09T09:25:28.837Z,517.50
2019-05-09T09:26:28.525Z,506.25
2019-05-09T09:27:28.503Z,528.75
2019-05-09T09:28:28.491Z,579.38
2019-05-09T09:29:28.542Z,663.75
2019-05-09T09:30:29.484Z,731.25
2019-05-09T09:31:28.676Z,731.25
2019-05-09T09:32:28.473Z,725.62
2019-05-09T09:33:28.440Z,725.62
2019-05-09T09:34:30.078Z,731.25
2019-05-09T09:35:28.418Z,753.75
2019-05-09T09:36:28.446Z,821.25
2019-05-09T09:37:44.720Z,933.75
2019-05-09T09:38:29.378Z,1035.00
2019-05-09T09:39:31.152Z,1158.75
2019-05-09T09:40:28.385Z,1288.12
2019-05-09T09:41:28.819Z,1310.62
2019-05-09T09:42:28.491Z,1260.00
2019-05-09T09:43:28.326Z,1085.62
2019-05-09T09:44:28.837Z,1040.62
2019-05-09T09:45:28.376Z,1023.75
2019-05-09T09:46:28.661Z,1023.75
2019-05-09T09:47:28.712Z,1023.75
2019-05-09T09:48:28.547Z,1018.12
2019-05-09T09:49:29.266Z,1046.25
2019-05-09T09:50:28.267Z,1119.38
2019-05-09T09:51:28.249Z,1186.88
2019-05-09T09:52:29.311Z,1276.88
2019-05-09T09:53:28.213Z,1344.38
2019-05-09T09:54:28.334Z,1434.38
2019-05-09T09:55:28.192Z,1490.62
2019-05-09T09:56:28.514Z,1541.25
2019-05-09T09:57:28.859Z,1597.50
2019-05-09T09:58:28.171Z,1670.62
2019-05-09T09:59:28.352Z,1996.88
2019-05-09T10:00:28.140Z,2368.12
2019-05-09T10:01:28.847Z,2266.88
2019-05-09T10:02:28.154Z,1805.62
2019-05-09T10:03:28.102Z,1974.38
2019-05-09T10:04:28.459Z,1822.50
2019-05-09T10:05:28.093Z,1552.50
2019-05-09T10:06:28.538Z,1552.50
2019-05-09T10:07:28.069Z,1670.62
2019-05-09T10:08:28.063Z,1946.25
2019-05-09T10:09:28.036Z,2137.50
2019-05-09T10:10:28.672Z,2311.88
2019-05-09T10:11:28.614Z,2401.88
2019-05-09T10:12:29.111Z,1861.88
2019-05-09T10:13:28.683Z,2176.88
2019-05-09T10:14:28.439Z,1991.25
2019-05-09T10:15:28.204Z,1996.88
2019-05-09T10:16:31.881Z,2261.25
2019-05-09T10:17:28.216Z,2109.38
2019-05-09T10:18:27.941Z,1878.75
2019-05-09T10:19:27.931Z,1575.00
2019-05-09T10:20:29.141Z,1434.38
2019-05-09T10:21:27.935Z,1440.00
2019-05-09T10:22:27.916Z,1186.88
2019-05-09T10:23:27.893Z,1046.25
2019-05-09T10:24:28.160Z,900.00
2019-05-09T10:25:27.862Z,748.12
2019-05-09T10:26:28.463Z,630.00
2019-05-09T10:27:28.482Z,573.75
2019-05-09T10:28:30.094Z,545.62
2019-05-09T10:29:27.966Z,556.88
2019-05-09T10:30:28.530Z,556.88
2019-05-09T10:31:28.372Z,556.88
2019-05-09T10:32:28.871Z,483.75
2019-05-09T10:33:28.079Z,410.62
2019-05-09T10:34:28.773Z,416.25
2019-05-09T10:35:27.981Z,455.62
2019-05-09T10:36:28.031Z,517.50
2019-05-09T10:37:27.731Z,630.00
2019-05-09T10:38:28.067Z,753.75
2019-05-09T10:39:27.782Z,877.50
2019-05-09T10:40:28.196Z,973.12
2019-05-09T10:41:27.684Z,1046.25
2019-05-09T10:42:28.606Z,1085.62
2019-05-09T10:43:35.901Z,1119.38
2019-05-09T10:44:28.650Z,1260.00
2019-05-09T10:45:27.658Z,1411.88
2019-05-09T10:46:33.627Z,1541.25
2019-05-09T10:47:28.608Z,1653.75
2019-05-09T10:48:28.287Z,1721.25
2019-05-09T10:49:27.594Z,1766.25
2019-05-09T10:50:34.166Z,1811.25
2019-05-09T10:51:28.584Z,2193.75
2019-05-09T10:52:28.375Z,3712.50
2019-05-09T10:53:28.412Z,2137.50
2019-05-09T10:54:27.940Z,1867.50
2019-05-09T10:55:28.390Z,1811.25
2019-05-09T10:56:28.178Z,1828.12
2019-05-09T10:57:31.563Z,1766.25
2019-05-09T10:58:28.490Z,1631.25
2019-05-09T10:59:27.487Z,1524.38
2019-05-09T11:00:28.881Z,1496.25
2019-05-09T11:01:29.416Z,1423.12
2019-05-09T11:02:28.046Z,1535.62
2019-05-09T11:03:27.432Z,2019.38
2019-05-09T11:04:28.800Z,1828.12
2019-05-09T11:05:27.820Z,2227.50
2019-05-09T11:06:28.686Z,2289.38
2019-05-09T11:07:28.987Z,2266.88
2019-05-09T11:08:28.599Z,1743.75
2019-05-09T11:09:29.084Z,1715.62
2019-05-09T11:10:31.811Z,1648.12
2019-05-09T11:11:28.833Z,1468.12
2019-05-09T11:12:27.722Z,1248.75
2019-05-09T11:13:28.738Z,984.38
2019-05-09T11:14:33.553Z,753.75
2019-05-09T11:15:28.365Z,585.00
2019-05-09T11:16:39.597Z,472.50
2019-05-09T11:17:28.715Z,421.88
2019-05-09T11:18:28.654Z,421.88
2019-05-09T11:19:28.831Z,433.12
2019-05-09T11:20:28.375Z,461.25
2019-05-09T11:21:28.543Z,483.75
2019-05-09T11:22:29.151Z,506.25
2019-05-09T11:23:29.178Z,500.62
2019-05-09T11:24:41.682Z,461.25
2019-05-09T11:25:28.186Z,427.50
2019-05-09T11:26:28.474Z,416.25
2019-05-09T11:27:28.891Z,421.88
2019-05-09T11:28:28.562Z,433.12
2019-05-09T11:29:28.095Z,483.75
2019-05-09T11:30:28.253Z,585.00
2019-05-09T11:31:29.463Z,703.12
2019-05-09T11:32:27.879Z,826.88
2019-05-09T11:33:27.826Z,928.12
2019-05-09T11:34:27.101Z,961.88
2019-05-09T11:35:27.119Z,900.00
2019-05-09T11:36:27.069Z,798.75
2019-05-09T11:37:27.061Z,725.62
2019-05-09T11:38:35.152Z,697.50
2019-05-09T11:39:36.542Z,691.88
2019-05-09T11:40:28.277Z,669.38
2019-05-09T11:41:29.363Z,652.50
2019-05-09T11:42:28.504Z,658.12
2019-05-09T11:43:29.704Z,731.25
2019-05-09T11:44:27.334Z,753.75
2019-05-09T11:45:28.091Z,731.25
2019-05-09T11:46:28.823Z,731.25
2019-05-09T11:47:33.639Z,821.25
2019-05-09T11:48:28.450Z,1057.50
2019-05-09T11:49:29.440Z,1350.00
2019-05-09T11:50:26.916Z,1620.00
2019-05-09T11:51:29.100Z,1575.00
2019-05-09T11:52:28.827Z,2205.00
2019-05-09T11:53:28.798Z,2396.25
2019-05-09T11:54:27.888Z,2311.88
2019-05-09T11:55:35.034Z,1445.62
2019-05-09T11:56:27.839Z,1265.62
2019-05-09T11:57:28.683Z,1113.75
2019-05-09T11:58:27.996Z,995.62
2019-05-09T11:59:28.089Z,894.38
2019-05-09T12:00:29.218Z,793.12
2019-05-09T12:01:29.268Z,703.12
2019-05-09T12:02:27.972Z,652.50
2019-05-09T12:03:26.771Z,680.62
2019-05-09T12:04:28.151Z,793.12
2019-05-09T12:05:28.795Z,1029.38
2019-05-09T12:06:28.977Z,2767.50
2019-05-09T12:07:28.801Z,2795.62
2019-05-09T12:08:26.712Z,2610.00
2019-05-09T12:09:28.880Z,1974.38
2019-05-09T12:10:28.598Z,2295.00
2019-05-09T12:11:26.673Z,2475.00
2019-05-09T12:12:28.301Z,2784.38
2019-05-09T12:13:26.658Z,2868.75
2019-05-09T12:14:27.609Z,3088.12
2019-05-09T12:15:29.077Z,3116.25
2019-05-09T12:16:27.999Z,3200.62
2019-05-09T12:17:31.210Z,3330.00
2019-05-09T12:18:28.606Z,3504.38
2019-05-09T12:19:29.405Z,3448.12
2019-05-09T12:20:27.727Z,3498.75
2019-05-09T12:21:28.213Z,3273.75
2019-05-09T12:22:28.031Z,3285.00
2019-05-09T12:23:28.971Z,3577.50
2019-05-09T12:24:26.530Z,3622.50
2019-05-09T12:25:28.302Z,3498.75
2019-05-09T12:26:29.227Z,3453.75
2019-05-09T12:27:28.081Z,3155.62
2019-05-09T12:28:26.496Z,3363.75
2019-05-09T12:29:28.599Z,3825.00
2019-05-09T12:30:28.480Z,3701.25
2019-05-09T12:31:28.541Z,3116.25
2019-05-09T12:32:28.525Z,2356.88
2019-05-09T12:33:28.471Z,2317.50
2019-05-09T12:34:27.698Z,2334.38
2019-05-09T12:35:26.417Z,2143.12
2019-05-09T12:36:28.596Z,2295.00
2019-05-09T12:37:28.127Z,2266.88
2019-05-09T12:38:27.720Z,2165.62
2019-05-09T12:39:27.487Z,1856.25
2019-05-09T12:40:26.393Z,1676.25
2019-05-09T12:41:30.933Z,1771.88
2019-05-09T12:42:28.913Z,1760.62
2019-05-09T12:43:28.314Z,1614.38
2019-05-09T12:44:28.716Z,1462.50
2019-05-09T12:45:26.313Z,1473.75
2019-05-09T12:46:28.382Z,1513.12
2019-05-09T12:47:29.072Z,1445.62
2019-05-09T12:48:27.887Z,1372.50
2019-05-09T12:49:28.285Z,1411.88
2019-05-09T12:50:28.392Z,1614.38
2019-05-09T12:51:28.228Z,2154.38
2019-05-09T12:52:28.612Z,3071.25
2019-05-09T12:53:27.956Z,3346.88
2019-05-09T12:54:27.935Z,4235.62
2019-05-09T12:55:27.593Z,4128.75
2019-05-09T12:56:28.376Z,1800.00
2019-05-09T12:57:28.716Z,1861.88
2019-05-09T12:58:27.659Z,2880.00
2019-05-09T12:59:28.526Z,4725.00
2019-05-09T13:00:28.386Z,3127.50
2019-05-09T13:01:26.131Z,5130.00
2019-05-09T13:02:27.883Z,5163.75
2019-05-09T13:03:27.619Z,4837.50
2019-05-09T13:04:28.124Z,3487.50
2019-05-09T13:05:27.363Z,1327.50
2019-05-09T13:06:28.941Z,1096.88
2019-05-09T13:07:29.475Z,883.12
2019-05-09T13:08:27.819Z,753.75
2019-05-09T13:09:28.440Z,680.62
2019-05-09T13:10:28.236Z,607.50
2019-05-09T13:11:27.930Z,556.88
2019-05-09T13:12:28.937Z,523.12
2019-05-09T13:13:28.303Z,466.88
2019-05-09T13:14:28.391Z,388.12
2019-05-09T13:15:30.579Z,320.62
2019-05-09T13:16:43.494Z,275.62
2019-05-09T13:17:27.316Z,241.88
2019-05-09T13:18:29.514Z,219.38
2019-05-09T13:19:27.868Z,202.50
2019-05-09T13:20:28.437Z,185.62
2019-05-09T13:21:29.737Z,185.62
2019-05-09T13:22:28.428Z,191.25
2019-05-09T13:23:28.696Z,202.50
2019-05-09T13:24:28.224Z,208.12
2019-05-09T13:25:25.869Z,247.50
2019-05-09T13:26:28.526Z,315.00
2019-05-09T13:27:28.451Z,382.50
2019-05-09T13:28:25.852Z,427.50
2019-05-09T13:29:25.835Z,433.12
2019-05-09T13:30:28.282Z,433.12
2019-05-09T13:31:29.077Z,410.62
2019-05-09T13:32:28.037Z,376.88
2019-05-09T13:33:25.784Z,354.38
2019-05-09T13:34:28.218Z,348.75
2019-05-09T13:35:27.834Z,337.50
2019-05-09T13:36:28.105Z,337.50
2019-05-09T13:37:29.379Z,337.50
2019-05-09T13:38:27.646Z,337.50
2019-05-09T13:39:27.845Z,337.50
2019-05-09T13:40:29.042Z,343.12
2019-05-09T13:41:25.692Z,360.00
2019-05-09T13:42:28.246Z,393.75
2019-05-09T13:43:28.085Z,438.75
2019-05-09T13:44:27.687Z,495.00
2019-05-09T13:45:25.643Z,573.75
2019-05-09T13:46:28.016Z,686.25
2019-05-09T13:47:27.850Z,838.12
2019-05-09T13:48:37.850Z,1074.38
2019-05-09T13:49:28.618Z,1715.62
2019-05-09T13:50:25.589Z,2885.62
2019-05-09T13:51:25.585Z,1620.00
2019-05-09T13:52:27.386Z,2064.38
2019-05-09T13:53:25.551Z,1974.38
2019-05-09T13:54:28.321Z,3667.50
2019-05-09T13:55:27.515Z,2666.25
2019-05-09T13:56:27.806Z,4426.88
2019-05-09T13:57:27.572Z,4443.75
2019-05-09T13:58:25.521Z,1260.00
2019-05-09T13:59:25.489Z,1035.00
2019-05-09T14:00:25.491Z,922.50
2019-05-09T14:01:25.467Z,866.25
2019-05-09T14:02:25.455Z,843.75
2019-05-09T14:03:28.007Z,826.88
2019-05-09T14:04:28.426Z,821.25
2019-05-09T14:05:25.425Z,826.88
2019-05-09T14:06:27.550Z,877.50
2019-05-09T14:07:27.766Z,945.00
2019-05-09T14:08:27.972Z,984.38
2019-05-09T14:09:25.401Z,1001.25
2019-05-09T14:10:25.398Z,1029.38
2019-05-09T14:11:25.358Z,1051.88
2019-05-09T14:12:25.348Z,1136.25
2019-05-09T14:13:27.534Z,1209.38
2019-05-09T14:14:27.911Z,1288.12
2019-05-09T14:15:27.393Z,1243.12
2019-05-09T14:16:25.311Z,1198.12
2019-05-09T14:17:41.801Z,1136.25
2019-05-09T14:18:26.287Z,1068.75
2019-05-09T14:19:38.578Z,1012.50
2019-05-09T14:20:27.556Z,961.88
2019-05-09T14:21:25.257Z,933.75
2019-05-09T14:22:25.251Z,933.75
2019-05-09T14:23:35.054Z,978.75
2019-05-09T14:24:27.882Z,1029.38
2019-05-09T14:25:25.213Z,1096.88
2019-05-09T14:26:25.199Z,1181.25
2019-05-09T14:27:25.189Z,1333.12
2019-05-09T14:28:26.594Z,1681.88
2019-05-09T14:29:25.167Z,1822.50
2019-05-09T14:30:27.406Z,2385.00
2019-05-09T14:31:28.967Z,3780.00
2019-05-09T14:32:26.820Z,3487.50
2019-05-09T14:33:25.127Z,3279.38
2019-05-09T14:34:25.106Z,2632.50
2019-05-09T14:35:25.093Z,1198.12
2019-05-09T14:36:27.561Z,1181.25
2019-05-09T14:37:25.104Z,1136.25
2019-05-09T14:38:25.061Z,1096.88
2019-05-09T14:39:27.567Z,945.00
2019-05-09T14:40:25.041Z,787.50
2019-05-09T14:41:27.538Z,742.50